sensor_id;sensor_type;location;lat;lon;timestamp;temperature;humidity
8093;DHT22;4089;52.420;13.334;2023-07-20T00:00:30;17.20;99.90
8093;DHT22;4089;52.420;13.334;2023-07-20T00:03:13;17.30;99.90
8093;DHT22;4089;52.420;13.334;2023-07-20T00:05:43;17.20;99.90
8093;DHT22;4089;52.420;13.334;2023-07-20T00:08:11;17.20;99.90
8093;DHT22;4089;52.420;13.334;2023-07-20T00:10:38;17.30;99.90
8093;DHT22;4089;52.420;13.334;2023-07-20T00:13:05;17.20;99.90
8093;DHT22;4089;52.420;13.334;2023-07-20T00:15:32;17.20;99.90
8093;DHT22;4089;52.420;13.334;2023-07-20T00:17:59;17.10;99.90
8093;DHT22;4089;52.420;13.334;2023-07-20T00:20:26;17.10;99.90
8093;DHT22;4089;52.420;13.334;2023-07-20T00:22:53;17.00;99.90
8093;DHT22;4089;52.420;13.334;2023-07-20T00:25:21;16.90;99.90
8093;DHT22;4089;52.420;13.334;2023-07-20T00:27:48;16.80;99.90
8093;DHT22;4089;52.420;13.334;2023-07-20T00:30:15;16.80;99.90
8093;DHT22;4089;52.420;13.334;2023-07-20T00:32:42;16.80;99.90
8093;DHT22;4089;52.420;13.334;2023-07-20T00:35:10;16.90;99.90
8093;DHT22;4089;52.420;13.334;2023-07-20T00:37:38;16.90;99.90
8093;DHT22;4089;52.420;13.334;2023-07-20T00:40:06;16.90;99.90
8093;DHT22;4089;52.420;13.334;2023-07-20T00:42:34;17.00;99.90
8093;DHT22;4089;52.420;13.334;2023-07-20T00:45:01;16.90;99.90
8093;DHT22;4089;52.420;13.334;2023-07-20T00:47:28;16.90;99.90
8093;DHT22;4089;52.420;13.334;2023-07-20T00:49:55;16.90;99.90
8093;DHT22;4089;52.420;13.334;2023-07-20T00:52:23;16.90;99.90
8093;DHT22;4089;52.420;13.334;2023-07-20T00:54:52;16.90;99.90
8093;DHT22;4089;52.420;13.334;2023-07-20T00:57:24;16.80;99.90
8093;DHT22;4089;52.420;13.334;2023-07-20T00:59:52;16.80;99.90
8093;DHT22;4089;52.420;13.334;2023-07-20T01:02:19;16.70;99.90
8093;DHT22;4089;52.420;13.334;2023-07-20T01:04:46;16.80;99.90
8093;DHT22;4089;52.420;13.334;2023-07-20T01:14:50;16.70;99.90
8093;DHT22;4089;52.420;13.334;2023-07-20T01:17:16;16.60;99.90
8093;DHT22;4089;52.420;13.334;2023-07-20T01:19:43;16.70;99.90
8093;DHT22;4089;52.420;13.334;2023-07-20T01:23:02;16.70;99.90
8093;DHT22;4089;52.420;13.334;2023-07-20T01:33:02;16.80;99.90
8093;DHT22;4089;52.420;13.334;2023-07-20T01:35:30;16.70;99.90
8093;DHT22;4089;52.420;13.334;2023-07-20T01:37:59;16.80;99.90
8093;DHT22;4089;52.420;13.334;2023-07-20T01:40:26;16.80;99.90
8093;DHT22;4089;52.420;13.334;2023-07-20T01:42:53;16.70;99.90
8093;DHT22;4089;52.420;13.334;2023-07-20T01:45:20;16.70;99.90
8093;DHT22;4089;52.420;13.334;2023-07-20T01:47:47;16.70;99.90
8093;DHT22;4089;52.420;13.334;2023-07-20T01:50:14;16.70;99.90
8093;DHT22;4089;52.420;13.334;2023-07-20T01:52:40;16.70;99.90
8093;DHT22;4089;52.420;13.334;2023-07-20T01:55:08;16.60;99.90
8093;DHT22;4089;52.420;13.334;2023-07-20T01:57:35;16.60;99.90
8093;DHT22;4089;52.420;13.334;2023-07-20T02:00:02;16.50;99.90
8093;DHT22;4089;52.420;13.334;2023-07-20T02:02:29;16.60;99.90
8093;DHT22;4089;52.420;13.334;2023-07-20T02:04:56;16.60;99.90
8093;DHT22;4089;52.420;13.334;2023-07-20T02:07:23;16.60;99.90
8093;DHT22;4089;52.420;13.334;2023-07-20T02:09:50;16.70;99.90
8093;DHT22;4089;52.420;13.334;2023-07-20T02:12:16;16.60;99.90
8093;DHT22;4089;52.420;13.334;2023-07-20T02:14:43;16.60;99.90
8093;DHT22;4089;52.420;13.334;2023-07-20T02:17:10;16.60;99.90
8093;DHT22;4089;52.420;13.334;2023-07-20T02:19:38;16.50;99.90
8093;DHT22;4089;52.420;13.334;2023-07-20T02:22:05;16.50;99.90
8093;DHT22;4089;52.420;13.334;2023-07-20T02:24:33;16.50;99.90
8093;DHT22;4089;52.420;13.334;2023-07-20T02:27:00;16.40;99.90
8093;DHT22;4089;52.420;13.334;2023-07-20T02:29:27;16.40;99.90
8093;DHT22;4089;52.420;13.334;2023-07-20T02:31:54;16.40;99.90
8093;DHT22;4089;52.420;13.334;2023-07-20T02:34:21;16.40;99.90
8093;DHT22;4089;52.420;13.334;2023-07-20T02:36:48;16.40;99.90
8093;DHT22;4089;52.420;13.334;2023-07-20T02:39:15;16.30;99.90
8093;DHT22;4089;52.420;13.334;2023-07-20T02:41:41;16.20;99.90
8093;DHT22;4089;52.420;13.334;2023-07-20T02:44:08;16.20;99.90
8093;DHT22;4089;52.420;13.334;2023-07-20T02:46:35;16.30;99.90
8093;DHT22;4089;52.420;13.334;2023-07-20T02:49:02;16.30;99.90
8093;DHT22;4089;52.420;13.334;2023-07-20T02:51:29;16.30;99.90
8093;DHT22;4089;52.420;13.334;2023-07-20T02:53:55;16.30;99.90
8093;DHT22;4089;52.420;13.334;2023-07-20T02:56:22;16.30;99.90
8093;DHT22;4089;52.420;13.334;2023-07-20T02:58:50;16.30;99.90
8093;DHT22;4089;52.420;13.334;2023-07-20T03:01:16;16.30;99.90
8093;DHT22;4089;52.420;13.334;2023-07-20T03:03:43;16.30;99.90
8093;DHT22;4089;52.420;13.334;2023-07-20T03:06:14;16.30;99.90
8093;DHT22;4089;52.420;13.334;2023-07-20T03:08:42;16.40;99.90
8093;DHT22;4089;52.420;13.334;2023-07-20T03:11:12;16.40;99.90
8093;DHT22;4089;52.420;13.334;2023-07-20T03:13:39;16.40;99.90
8093;DHT22;4089;52.420;13.334;2023-07-20T03:16:05;16.40;99.90
8093;DHT22;4089;52.420;13.334;2023-07-20T03:18:41;16.30;99.90
8093;DHT22;4089;52.420;13.334;2023-07-20T03:21:09;16.40;99.90
8093;DHT22;4089;52.420;13.334;2023-07-20T03:23:41;16.40;99.90
8093;DHT22;4089;52.420;13.334;2023-07-20T03:26:08;16.40;99.90
8093;DHT22;4089;52.420;13.334;2023-07-20T03:28:36;16.50;99.90
8093;DHT22;4089;52.420;13.334;2023-07-20T03:31:04;16.40;99.90
8093;DHT22;4089;52.420;13.334;2023-07-20T03:33:31;16.50;99.90
8093;DHT22;4089;52.420;13.334;2023-07-20T03:35:58;16.50;99.90
8093;DHT22;4089;52.420;13.334;2023-07-20T03:38:26;16.30;99.90
8093;DHT22;4089;52.420;13.334;2023-07-20T03:40:58;16.40;99.90
8093;DHT22;4089;52.420;13.334;2023-07-20T03:43:27;16.40;99.90
8093;DHT22;4089;52.420;13.334;2023-07-20T03:45:54;16.50;99.90
8093;DHT22;4089;52.420;13.334;2023-07-20T03:48:24;16.40;99.90
8093;DHT22;4089;52.420;13.334;2023-07-20T03:50:52;16.50;99.90
8093;DHT22;4089;52.420;13.334;2023-07-20T03:53:20;16.50;99.90
8093;DHT22;4089;52.420;13.334;2023-07-20T03:55:48;16.50;99.90
8093;DHT22;4089;52.420;13.334;2023-07-20T03:58:15;16.60;99.90
8093;DHT22;4089;52.420;13.334;2023-07-20T04:00:47;16.60;99.90
8093;DHT22;4089;52.420;13.334;2023-07-20T04:03:14;16.60;99.90
8093;DHT22;4089;52.420;13.334;2023-07-20T04:05:42;16.60;99.90
8093;DHT22;4089;52.420;13.334;2023-07-20T04:08:09;16.60;99.90
8093;DHT22;4089;52.420;13.334;2023-07-20T04:10:38;16.60;99.90
8093;DHT22;4089;52.420;13.334;2023-07-20T04:13:05;16.60;99.90
8093;DHT22;4089;52.420;13.334;2023-07-20T04:15:32;16.60;99.90
